createdAt,value
2023-03-05T00:02:22.331Z,73.67
2023-03-05T00:04:52.002Z,66.95
2023-03-05T00:07:21.499Z,68.67
2023-03-05T00:09:50.932Z,71.50
2023-03-05T00:12:21.113Z,75.70
2023-03-05T00:14:50.537Z,76.82
2023-03-05T00:17:20.204Z,70.60
2023-03-05T00:19:50.619Z,75.92
2023-03-05T00:22:20.046Z,81.85
2023-03-05T00:24:54.417Z,74.37
2023-03-05T00:27:23.933Z,71.72
2023-03-05T00:29:53.357Z,79.05
2023-03-05T00:32:23.503Z,75.05
2023-03-05T00:34:52.949Z,85.55
2023-03-05T00:37:22.449Z,80.17
2023-03-05T00:39:51.935Z,80.65
2023-03-05T00:42:21.363Z,77.67
2023-03-05T00:44:50.800Z,73.40
2023-03-05T00:47:21.287Z,74.03
2023-03-05T00:49:50.730Z,71.72
2023-03-05T00:52:20.350Z,75.20
2023-03-05T00:54:49.843Z,73.02
2023-03-05T00:57:19.441Z,77.70
2023-03-05T00:59:49.396Z,74.27
2023-03-05T01:02:18.996Z,70.50
2023-03-05T01:04:48.536Z,71.12
2023-03-05T01:07:18.118Z,76.40
2023-03-05T01:09:47.540Z,73.15
2023-03-05T01:12:17.269Z,66.02
2023-03-05T01:14:46.958Z,75.05
2023-03-05T01:17:16.383Z,67.70
2023-03-05T01:19:46.003Z,71.02
2023-03-05T01:22:15.472Z,78.05
2023-03-05T01:24:44.950Z,77.72
2023-03-05T01:27:14.352Z,77.72
2023-03-05T01:29:44.271Z,79.40
2023-03-05T01:32:13.868Z,77.37
2023-03-05T01:34:43.438Z,79.53
2023-03-05T01:37:12.941Z,67.97
2023-03-05T01:39:42.448Z,75.62
2023-03-05T01:42:12.028Z,73.37
2023-03-05T01:44:43.060Z,67.73
2023-03-05T01:47:12.490Z,76.57
2023-03-05T01:49:42.365Z,72.95
2023-03-05T01:52:23.228Z,71.40
2023-03-05T01:54:58.485Z,79.47
2023-03-05T01:57:36.856Z,73.07
2023-03-05T02:00:12.562Z,77.50
2023-03-05T02:02:48.808Z,86.13
2023-03-05T02:05:23.025Z,83.85
2023-03-05T02:07:55.383Z,77.87
2023-03-05T02:10:36.783Z,76.82
2023-03-05T02:13:09.450Z,80.35
2023-03-05T02:15:39.955Z,79.67
2023-03-05T02:18:11.442Z,75.53
2023-03-05T02:20:49.392Z,84.28
2023-03-05T02:23:22.804Z,78.15
2023-03-05T02:25:52.614Z,84.28
2023-03-05T02:28:30.796Z,81.00
2023-03-05T02:31:01.324Z,74.53
2023-03-05T02:33:30.826Z,77.17
2023-03-05T02:36:00.487Z,76.35
2023-03-05T02:38:30.159Z,69.20
2023-03-05T02:40:59.897Z,73.50
2023-03-05T02:43:29.465Z,73.65
2023-03-05T02:45:59.223Z,80.55
2023-03-05T02:48:29.277Z,77.70
2023-03-05T02:50:59.212Z,72.30
2023-03-05T02:53:28.632Z,75.12
2023-03-05T02:55:58.667Z,74.92
2023-03-05T02:58:29.317Z,73.55
2023-03-05T03:00:59.491Z,76.62
2023-03-05T03:03:29.170Z,68.52
2023-03-05T03:05:58.654Z,73.45
2023-03-05T03:08:28.303Z,80.62
2023-03-05T03:10:57.806Z,77.62
2023-03-05T03:13:27.300Z,76.37
2023-03-05T03:16:09.366Z,76.53
2023-03-05T03:18:38.856Z,76.45
2023-03-05T03:21:10.098Z,72.80
2023-03-05T03:25:40.231Z,75.08
2023-03-05T03:28:11.402Z,73.78
2023-03-05T03:30:52.923Z,78.83
2023-03-05T03:33:22.426Z,85.57
2023-03-05T03:35:51.881Z,77.32
2023-03-05T03:38:21.286Z,72.72
2023-03-05T03:40:51.101Z,77.40
2023-03-05T03:43:20.536Z,72.65
2023-03-05T03:45:50.076Z,74.97
2023-03-05T03:48:19.953Z,75.10
2023-03-05T03:50:49.378Z,76.95
2023-03-05T03:53:19.025Z,73.22
2023-03-05T03:55:48.572Z,77.08
2023-03-05T03:58:18.043Z,77.00
2023-03-05T04:00:47.584Z,79.10
2023-03-05T04:03:17.315Z,80.22
2023-03-05T04:05:46.754Z,76.95
2023-03-05T04:08:16.233Z,73.07
2023-03-05T04:10:46.010Z,74.25
2023-03-05T04:13:15.435Z,74.27
2023-03-05T04:15:45.397Z,75.50
2023-03-05T04:18:15.702Z,74.42
2023-03-05T04:20:45.185Z,72.10
2023-03-05T04:23:14.697Z,79.07
2023-03-05T04:25:44.400Z,75.60
2023-03-05T04:28:15.108Z,75.52
2023-03-05T04:30:45.024Z,66.00
2023-03-05T04:33:14.969Z,77.70
2023-03-05T04:35:45.189Z,85.22
2023-03-05T04:38:15.060Z,76.53
2023-03-05T04:40:45.495Z,75.83
2023-03-05T04:43:15.416Z,78.35
2023-03-05T04:45:45.282Z,74.67
2023-03-05T04:48:14.834Z,76.67
2023-03-05T04:50:44.410Z,73.52
2023-03-05T04:53:14.554Z,75.52
2023-03-05T04:55:44.740Z,67.08
2023-03-05T04:58:14.476Z,75.57
2023-03-05T05:00:44.027Z,78.78
2023-03-05T05:03:13.924Z,73.80
2023-03-05T05:05:43.643Z,77.72
2023-03-05T05:08:13.140Z,78.07
2023-03-05T05:10:42.582Z,73.37
2023-03-05T05:13:12.218Z,75.97
2023-03-05T05:15:42.286Z,75.32
2023-03-05T05:18:11.716Z,73.37
2023-03-05T05:20:41.390Z,72.15
2023-03-05T05:23:10.892Z,70.65
2023-03-05T05:25:40.477Z,71.30
2023-03-05T05:28:10.905Z,80.50
2023-03-05T05:30:40.416Z,72.45
2023-03-05T05:33:09.842Z,74.87
2023-03-05T05:35:40.984Z,74.17
2023-03-05T05:38:10.387Z,72.70
2023-03-05T05:40:40.221Z,83.70
2023-03-05T05:43:10.338Z,76.45
2023-03-05T05:45:40.434Z,77.20
2023-03-05T05:48:10.086Z,84.00
2023-03-05T05:50:41.215Z,70.35
2023-03-05T05:53:10.970Z,79.70
2023-03-05T05:55:41.962Z,84.93
2023-03-05T05:58:11.526Z,77.10
2023-03-05T06:00:41.391Z,77.72
2023-03-05T06:03:11.077Z,77.50
2023-03-05T06:05:43.401Z,75.42
2023-03-05T06:08:12.949Z,81.37
2023-03-05T06:10:42.439Z,80.15
2023-03-05T06:13:12.638Z,78.00
2023-03-05T06:15:42.102Z,78.45
2023-03-05T06:18:11.525Z,76.85
2023-03-05T06:20:41.255Z,77.03
2023-03-05T06:23:11.005Z,79.47
2023-03-05T06:25:40.429Z,75.30
2023-03-05T06:28:10.112Z,75.70
2023-03-05T06:30:39.555Z,84.25
2023-03-05T06:33:09.035Z,78.62
2023-03-05T06:35:41.616Z,71.77
2023-03-05T06:38:11.091Z,79.00
2023-03-05T06:40:40.653Z,71.40
2023-03-05T06:43:10.354Z,74.60
2023-03-05T06:45:39.902Z,76.05
2023-03-05T06:48:09.454Z,80.72
2023-03-05T06:50:39.630Z,76.62
2023-03-05T06:53:09.071Z,72.67
2023-03-05T06:55:39.931Z,71.53
2023-03-05T06:58:09.772Z,72.22
2023-03-05T07:00:39.210Z,75.55
2023-03-05T07:03:08.646Z,72.65
2023-03-05T07:05:42.628Z,72.03
2023-03-05T07:08:12.045Z,69.17
2023-03-05T07:10:43.677Z,68.45
2023-03-05T07:13:13.140Z,73.37
2023-03-05T07:15:44.974Z,75.17
2023-03-05T07:18:14.432Z,74.93
2023-03-05T07:20:43.940Z,71.50
2023-03-05T07:23:14.041Z,67.50
2023-03-05T07:25:43.599Z,67.05
2023-03-05T07:28:13.249Z,70.17
2023-03-05T07:30:42.820Z,76.50
2023-03-05T07:33:12.655Z,79.17
2023-03-05T07:35:42.838Z,69.12
2023-03-05T07:38:12.318Z,71.45
2023-03-05T07:40:41.810Z,67.12
2023-03-05T07:43:11.492Z,66.00
2023-03-05T07:45:43.442Z,70.12
2023-03-05T07:48:20.485Z,76.10
2023-03-05T07:50:50.873Z,68.37
2023-03-05T07:53:20.380Z,72.45
2023-03-05T07:55:49.803Z,64.50
2023-03-05T07:58:19.230Z,65.60
2023-03-05T08:00:48.948Z,64.32
2023-03-05T08:03:18.508Z,70.17
2023-03-05T08:05:47.952Z,68.25
2023-03-05T08:08:17.946Z,63.00
2023-03-05T08:10:47.455Z,69.42
2023-03-05T08:13:17.065Z,65.50
2023-03-05T08:15:47.116Z,63.17
2023-03-05T08:18:18.379Z,60.08
2023-03-05T08:20:48.242Z,63.55
2023-03-05T08:23:18.149Z,63.35
2023-03-05T08:25:47.663Z,63.40
2023-03-05T08:28:19.169Z,59.30
2023-03-05T08:30:49.982Z,58.28
2023-03-05T08:33:19.538Z,60.08
2023-03-05T08:35:49.026Z,59.08
2023-03-05T08:38:20.991Z,67.20
2023-03-05T08:40:49.993Z,60.65
2023-03-05T08:43:20.928Z,58.13
2023-03-05T08:45:51.853Z,52.73
2023-03-05T08:48:22.817Z,59.00
2023-03-05T08:50:53.368Z,61.63
2023-03-05T08:53:23.260Z,54.17
2023-03-05T08:55:57.155Z,52.78
2023-03-05T08:58:27.124Z,57.10
2023-03-05T09:00:56.659Z,53.00
2023-03-05T09:03:26.437Z,58.00
2023-03-05T09:06:01.392Z,56.15
2023-03-05T09:08:31.529Z,52.05
2023-03-05T09:11:03.308Z,50.33
2023-03-05T09:13:33.745Z,49.83
2023-03-05T09:16:06.512Z,54.58
2023-03-05T09:18:38.144Z,50.78
2023-03-05T09:21:10.664Z,55.28
2023-03-05T09:23:41.866Z,53.58
2023-03-05T09:26:13.305Z,50.12
2023-03-05T09:28:43.572Z,52.70
2023-03-05T09:31:13.558Z,48.40
2023-03-05T09:33:43.485Z,50.00
2023-03-05T09:36:18.728Z,46.77
2023-03-05T09:38:48.265Z,51.65
2023-03-05T09:41:43.588Z,50.10
2023-03-05T09:44:33.030Z,54.85
2023-03-05T09:47:17.382Z,47.78
2023-03-05T09:49:52.598Z,49.95
2023-03-05T09:52:37.210Z,46.75
2023-03-05T09:55:15.698Z,47.73
2023-03-05T09:57:48.202Z,52.08
2023-03-05T10:00:21.273Z,50.38
2023-03-05T10:05:25.886Z,49.25
2023-03-05T10:07:58.392Z,50.25
2023-03-05T10:10:31.071Z,51.58
2023-03-05T10:13:03.119Z,53.42
2023-03-05T10:15:49.433Z,49.13
2023-03-05T10:18:37.218Z,47.78
2023-03-05T10:21:15.922Z,49.77
2023-03-05T10:23:54.841Z,44.67
2023-03-05T10:26:45.746Z,50.20
2023-03-05T10:29:21.088Z,48.10
2023-03-05T10:31:56.333Z,50.00
2023-03-05T10:34:49.776Z,45.63
2023-03-05T10:37:33.700Z,44.13
2023-03-05T10:40:21.258Z,41.58
2023-03-05T10:43:06.161Z,46.33
2023-03-05T10:45:44.440Z,42.57
2023-03-05T10:48:20.494Z,46.60
2023-03-05T10:50:53.022Z,42.25
2023-03-05T10:53:28.756Z,44.10
2023-03-05T10:56:04.125Z,41.75
2023-03-05T10:58:34.413Z,38.98
2023-03-05T11:01:16.875Z,42.13
2023-03-05T11:03:52.086Z,43.73
2023-03-05T11:06:45.735Z,42.58
2023-03-05T11:09:33.293Z,39.85
2023-03-05T11:12:14.594Z,42.60
2023-03-05T11:14:47.836Z,44.55
2023-03-05T11:17:38.602Z,36.65
2023-03-05T11:20:33.280Z,45.10
2023-03-05T11:23:14.711Z,35.92
2023-03-05T11:26:06.254Z,39.95
2023-03-05T11:28:38.951Z,37.93
2023-03-05T11:31:21.317Z,39.80
2023-03-05T11:34:05.845Z,43.63
2023-03-05T11:36:42.029Z,37.17
2023-03-05T11:39:14.536Z,42.17
2023-03-05T11:41:56.257Z,37.67
2023-03-05T11:44:36.951Z,38.67
2023-03-05T11:47:36.399Z,35.55
2023-03-05T11:50:14.705Z,36.25
2023-03-05T11:52:50.446Z,34.67
2023-03-05T11:55:22.656Z,35.05
2023-03-05T11:57:55.496Z,42.27
2023-03-05T12:00:28.388Z,33.15
2023-03-05T12:03:01.636Z,38.65
2023-03-05T12:05:31.977Z,35.95
2023-03-05T12:08:03.527Z,36.65
2023-03-05T12:10:32.960Z,35.30
2023-03-05T12:13:06.015Z,35.95
2023-03-05T12:18:36.323Z,34.83
2023-03-05T12:21:17.938Z,34.83
2023-03-05T12:23:50.623Z,33.92
2023-03-05T12:26:21.977Z,33.70
2023-03-05T12:28:56.627Z,37.42
2023-03-05T12:31:38.482Z,31.35
2023-03-05T12:34:43.084Z,36.70
2023-03-05T12:37:24.069Z,33.08
2023-03-05T12:40:07.796Z,33.80
2023-03-05T12:42:40.311Z,31.23
2023-03-05T12:45:16.355Z,32.95
2023-03-05T12:47:47.833Z,33.00
2023-03-05T12:50:33.652Z,33.13
2023-03-05T12:53:14.770Z,36.60
2023-03-05T12:55:56.422Z,34.58
2023-03-05T12:58:42.206Z,31.87
2023-03-05T13:01:17.791Z,31.95
2023-03-05T13:03:52.947Z,31.95
2023-03-05T13:06:32.689Z,34.38
2023-03-05T13:09:11.024Z,32.03
2023-03-05T13:11:41.363Z,32.70
2023-03-05T13:14:30.633Z,34.20
2023-03-05T13:17:00.733Z,34.55
2023-03-05T13:19:33.056Z,31.93
2023-03-05T13:22:05.757Z,33.98
2023-03-05T13:24:35.199Z,32.78
2023-03-05T13:27:07.903Z,34.10
2023-03-05T13:29:39.015Z,28.57
2023-03-05T13:32:29.369Z,30.37
2023-03-05T13:35:01.284Z,29.37
2023-03-05T13:37:36.411Z,31.83
2023-03-05T13:40:18.152Z,31.20
2023-03-05T13:42:47.944Z,32.53
2023-03-05T13:45:31.428Z,32.67
2023-03-05T13:48:04.512Z,31.97
2023-03-05T13:50:39.579Z,30.85
2023-03-05T13:53:21.141Z,32.30
2023-03-05T13:55:52.546Z,32.00
2023-03-05T13:58:43.734Z,33.08
2023-03-05T14:01:17.139Z,30.48
2023-03-05T14:03:52.602Z,33.42
2023-03-05T14:06:23.777Z,34.60
2023-03-05T14:09:03.906Z,37.35
2023-03-05T14:11:34.410Z,32.15
2023-03-05T14:14:13.081Z,34.10
2023-03-05T14:16:42.605Z,37.95
2023-03-05T14:19:36.472Z,33.85
2023-03-05T14:22:07.178Z,32.00
2023-03-05T14:24:38.362Z,31.87
2023-03-05T14:27:13.327Z,31.25
2023-03-05T14:29:48.150Z,32.38
2023-03-05T14:32:23.622Z,31.50
2023-03-05T14:34:56.159Z,30.02
2023-03-05T14:37:34.478Z,33.02
2023-03-05T14:40:09.814Z,31.33
2023-03-05T14:42:59.581Z,32.17
2023-03-05T14:45:37.936Z,33.28
2023-03-05T14:48:09.085Z,34.20
2023-03-05T14:50:41.686Z,34.27
2023-03-05T14:53:19.773Z,36.58
2023-03-05T14:55:51.448Z,29.77
2023-03-05T14:58:25.265Z,25.17
2023-03-05T15:00:57.083Z,31.50
2023-03-05T15:03:27.999Z,30.07
2023-03-05T15:05:59.642Z,36.77
2023-03-05T15:08:32.007Z,30.30
2023-03-05T15:11:01.971Z,32.60
2023-03-05T15:13:31.932Z,30.43
2023-03-05T15:16:01.573Z,34.10
2023-03-05T15:18:31.164Z,33.35
2023-03-05T15:21:02.462Z,34.03
2023-03-05T15:23:33.665Z,31.05
2023-03-05T15:26:05.500Z,27.80
2023-03-05T15:28:38.203Z,31.97
2023-03-05T15:31:08.637Z,36.45
2023-03-05T15:33:38.267Z,32.23
2023-03-05T15:36:09.840Z,29.70
2023-03-05T15:38:39.273Z,30.57
2023-03-05T15:41:09.704Z,30.17
2023-03-05T15:43:39.205Z,28.92
2023-03-05T15:46:08.803Z,34.03
2023-03-05T15:48:38.816Z,27.77
2023-03-05T15:51:09.051Z,37.30
2023-03-05T15:53:38.852Z,31.77
2023-03-05T15:56:08.424Z,29.25
2023-03-05T15:58:39.727Z,31.57
2023-03-05T16:01:09.198Z,32.80
2023-03-05T16:03:39.794Z,36.77
2023-03-05T16:06:12.480Z,33.00
2023-03-05T16:08:44.942Z,30.52
2023-03-05T16:11:14.717Z,35.38
2023-03-05T16:13:44.478Z,30.77
2023-03-05T16:16:15.507Z,30.80
2023-03-05T16:18:47.383Z,31.97
2023-03-05T16:21:17.042Z,30.32
2023-03-05T16:23:46.635Z,31.62
2023-03-05T16:26:16.220Z,33.15
2023-03-05T16:28:46.552Z,30.05
2023-03-05T16:31:16.001Z,29.02
2023-03-05T16:33:45.696Z,30.62
2023-03-05T16:36:27.388Z,28.15
2023-03-05T16:38:59.366Z,30.70
2023-03-05T16:41:29.534Z,37.00
2023-03-05T16:43:59.429Z,31.55
2023-03-05T16:46:32.854Z,33.13
2023-03-05T16:49:02.324Z,35.43
2023-03-05T16:51:32.714Z,31.73
2023-03-05T16:54:02.395Z,30.72
2023-03-05T16:56:31.990Z,29.98
2023-03-05T16:59:01.561Z,32.90
2023-03-05T17:01:31.370Z,30.32
2023-03-05T17:04:03.120Z,26.93
2023-03-05T17:06:34.963Z,32.13
2023-03-05T17:09:05.048Z,27.87
2023-03-05T17:11:34.606Z,30.32
2023-03-05T17:14:04.422Z,35.83
2023-03-05T17:16:34.313Z,34.48
2023-03-05T17:19:03.842Z,34.48
2023-03-05T17:21:33.349Z,33.20
2023-03-05T17:24:02.909Z,28.62
2023-03-05T17:26:32.875Z,34.65
2023-03-05T17:29:03.315Z,34.83
2023-03-05T17:31:33.800Z,29.18
2023-03-05T17:34:03.322Z,32.15
2023-03-05T17:36:32.928Z,33.55
2023-03-05T17:39:02.625Z,31.80
2023-03-05T17:41:32.122Z,33.50
2023-03-05T17:44:01.577Z,40.85
2023-03-05T17:46:31.241Z,51.35
2023-03-05T17:49:00.679Z,46.77
2023-03-05T17:51:30.282Z,39.65
2023-03-05T17:54:00.246Z,39.27
2023-03-05T17:56:30.652Z,38.13
2023-03-05T17:59:00.575Z,35.05
2023-03-05T18:01:32.926Z,35.38
2023-03-05T18:06:31.665Z,33.83
2023-03-05T18:09:01.389Z,38.03
2023-03-05T18:11:31.094Z,32.93
2023-03-05T18:14:00.790Z,32.85
2023-03-05T18:16:31.383Z,31.85
2023-03-05T18:19:00.942Z,34.35
2023-03-05T18:21:30.372Z,39.20
2023-03-05T18:24:00.458Z,36.03
2023-03-05T18:26:29.873Z,42.48
2023-03-05T18:28:59.376Z,47.10
2023-03-05T18:31:29.586Z,47.83
2023-03-05T18:33:59.082Z,37.83
2023-03-05T18:36:28.593Z,49.33
2023-03-05T18:38:58.351Z,50.52
2023-03-05T18:41:30.230Z,50.30
2023-03-05T18:44:00.049Z,47.35
2023-03-05T18:46:29.474Z,49.05
2023-03-05T18:48:58.907Z,47.27
2023-03-05T18:51:29.778Z,46.48
2023-03-05T18:53:59.504Z,50.67
2023-03-05T18:56:29.035Z,59.58
2023-03-05T18:58:59.013Z,58.13
2023-03-05T19:01:29.014Z,60.25
2023-03-05T19:03:58.928Z,55.40
2023-03-05T19:06:28.405Z,50.90
2023-03-05T19:08:59.786Z,52.88
2023-03-05T19:11:29.380Z,50.05
2023-03-05T19:13:59.116Z,46.65
2023-03-05T19:16:35.865Z,43.70
2023-03-05T19:19:25.583Z,45.95
2023-03-05T19:21:59.335Z,42.10
2023-03-05T19:24:30.923Z,48.90
2023-03-05T19:27:01.458Z,43.63
2023-03-05T19:29:32.925Z,49.45
2023-03-05T19:32:03.006Z,47.90
2023-03-05T19:34:33.729Z,49.03
2023-03-05T19:37:03.585Z,46.40
2023-03-05T19:39:34.060Z,45.90
2023-03-05T19:42:03.730Z,46.40
2023-03-05T19:44:34.863Z,54.75
2023-03-05T19:47:04.429Z,48.13
2023-03-05T19:49:34.016Z,49.90
2023-03-05T19:52:04.429Z,54.20
2023-03-05T19:54:34.023Z,48.65
2023-03-05T19:57:03.521Z,46.30
2023-03-05T19:59:33.655Z,54.03
2023-03-05T20:02:03.180Z,46.90
2023-03-05T20:04:32.585Z,54.08
2023-03-05T20:07:04.420Z,62.13
2023-03-05T20:09:34.484Z,57.03
2023-03-05T20:12:05.763Z,54.93
2023-03-05T20:14:36.349Z,63.28
2023-03-05T20:17:05.873Z,58.02
2023-03-05T20:19:36.788Z,59.70
2023-03-05T20:22:07.099Z,56.35
2023-03-05T20:24:37.406Z,56.85
2023-03-05T20:27:07.638Z,60.97
2023-03-05T20:29:37.301Z,74.42
2023-03-05T20:32:07.157Z,79.12
2023-03-05T20:34:36.591Z,84.35
2023-03-05T20:37:06.885Z,92.90
2023-03-05T20:39:37.809Z,90.50
2023-03-05T20:42:07.530Z,87.10
2023-03-05T20:44:36.959Z,79.12
2023-03-05T20:47:10.013Z,85.17
2023-03-05T20:49:39.574Z,74.00
2023-03-05T20:52:09.010Z,68.37
2023-03-05T20:54:40.613Z,67.70
2023-03-05T20:57:10.136Z,69.57
2023-03-05T20:59:39.626Z,62.85
2023-03-05T21:02:10.794Z,62.50
2023-03-05T21:04:40.322Z,57.98
2023-03-05T21:07:09.828Z,61.42
2023-03-05T21:09:39.651Z,61.68
2023-03-05T21:12:09.421Z,65.65
2023-03-05T21:14:41.042Z,74.40
2023-03-05T21:17:11.193Z,80.43
2023-03-05T21:19:41.781Z,85.87
2023-03-05T21:22:11.295Z,84.87
2023-03-05T21:24:46.033Z,79.47
2023-03-05T21:27:16.560Z,84.72
2023-03-05T21:29:46.088Z,80.85
2023-03-05T21:32:16.069Z,92.95
2023-03-05T21:34:45.563Z,84.65
2023-03-05T21:37:15.678Z,88.67
2023-03-05T21:39:45.162Z,93.35
2023-03-05T21:42:15.315Z,92.90
2023-03-05T21:44:44.746Z,89.52
2023-03-05T21:47:14.721Z,93.17
2023-03-05T21:49:44.489Z,105.45
2023-03-05T21:52:13.932Z,99.70
2023-03-05T21:54:44.459Z,100.67
2023-03-05T21:57:13.945Z,96.08
2023-03-05T21:59:43.708Z,102.12
2023-03-05T22:02:16.258Z,103.72
2023-03-05T22:04:46.405Z,99.65
2023-03-05T22:07:18.082Z,102.42
2023-03-05T22:09:47.988Z,108.15
2023-03-05T22:12:20.935Z,104.32
2023-03-05T22:17:19.456Z,97.22
2023-03-05T22:19:49.140Z,98.52
2023-03-05T22:22:18.837Z,104.75
2023-03-05T22:24:48.356Z,111.68
2023-03-05T22:27:18.895Z,115.80
2023-03-05T22:29:48.522Z,113.60
2023-03-05T22:32:18.121Z,113.45
2023-03-05T22:34:47.822Z,113.40
2023-03-05T22:37:17.230Z,118.42
2023-03-05T22:39:47.325Z,109.40
2023-03-05T22:42:16.730Z,123.38
2023-03-05T22:44:46.735Z,111.55
2023-03-05T22:47:16.255Z,107.27
2023-03-05T22:49:46.936Z,116.28
2023-03-05T22:52:16.846Z,110.22
2023-03-05T22:54:46.346Z,110.80
2023-03-05T22:57:15.854Z,107.12
2023-03-05T22:59:45.372Z,114.05
2023-03-05T23:02:14.824Z,113.75
2023-03-05T23:04:50.168Z,114.42
2023-03-05T23:07:26.117Z,112.47
2023-03-05T23:09:58.449Z,105.90
2023-03-05T23:12:31.241Z,106.22
2023-03-05T23:15:03.866Z,106.35
2023-03-05T23:17:33.279Z,105.27
2023-03-05T23:20:05.921Z,112.88
2023-03-05T23:22:37.098Z,113.10
2023-03-05T23:25:07.122Z,115.30
2023-03-05T23:27:36.622Z,114.30
2023-03-05T23:30:20.046Z,112.72
2023-03-05T23:32:59.085Z,99.52
2023-03-05T23:35:35.156Z,99.00
2023-03-05T23:38:07.502Z,97.35
2023-03-05T23:40:45.846Z,100.00
2023-03-05T23:43:17.593Z,101.62
2023-03-05T23:45:49.739Z,99.57
2023-03-05T23:48:19.222Z,94.35
2023-03-05T23:50:50.265Z,91.22
2023-03-05T23:53:22.439Z,88.47
2023-03-05T23:55:53.589Z,89.80
2023-03-05T23:58:23.984Z,88.72
